createdAt,value
2019-01-19T00:01:18.422Z,99.90
2019-01-19T00:04:10.841Z,99.90
2019-01-19T00:06:51.455Z,99.90
2019-01-19T00:09:23.112Z,99.90
2019-01-19T00:11:57.711Z,99.90
2019-01-19T00:14:26.284Z,99.90
2019-01-19T00:17:13.030Z,99.90
2019-01-19T00:20:00.999Z,99.90
2019-01-19T00:22:59.607Z,99.90
2019-01-19T00:25:36.718Z,99.90
2019-01-19T00:28:29.468Z,99.90
2019-01-19T00:31:10.183Z,99.90
2019-01-19T00:33:50.595Z,99.90
2019-01-19T00:36:31.018Z,99.90
2019-01-19T00:39:28.212Z,99.90
2019-01-19T00:42:20.939Z,99.90
2019-01-19T00:44:58.371Z,99.90
2019-01-19T00:47:32.606Z,99.90
2019-01-19T00:50:15.978Z,99.90
2019-01-19T00:52:47.662Z,99.90
2019-01-19T00:55:34.415Z,99.90
2019-01-19T00:58:12.062Z,99.90
2019-01-19T01:01:01.484Z,99.90
2019-01-19T01:03:42.375Z,99.90
2019-01-19T01:06:49.871Z,99.90
2019-01-19T01:09:37.994Z,99.90
2019-01-19T01:12:12.570Z,99.90
2019-01-19T01:14:58.495Z,99.90
2019-01-19T01:17:30.485Z,99.90
2019-01-19T01:20:24.593Z,99.90
2019-01-19T01:22:56.277Z,99.90
2019-01-19T01:25:36.934Z,99.90
2019-01-19T01:28:08.607Z,99.90
2019-01-19T01:30:49.174Z,99.90
2019-01-19T01:33:23.341Z,99.90
2019-01-19T01:36:32.067Z,99.90
2019-01-19T01:39:15.818Z,99.90
2019-01-19T01:42:06.945Z,99.90
2019-01-19T01:44:46.902Z,99.90
2019-01-19T01:47:36.769Z,99.90
2019-01-19T01:50:11.424Z,99.90
2019-01-19T01:52:58.120Z,99.90
2019-01-19T01:55:30.032Z,99.90
2019-01-19T01:58:01.674Z,99.90
2019-01-19T02:00:44.881Z,99.90
2019-01-19T02:03:34.813Z,99.90
2019-01-19T02:06:18.219Z,99.90
2019-01-19T02:08:55.512Z,99.90
2019-01-19T02:11:32.879Z,99.90
2019-01-19T02:14:07.463Z,99.90
2019-01-19T02:16:47.856Z,99.90
2019-01-19T02:19:19.532Z,99.90
2019-01-19T02:22:14.310Z,99.90
2019-01-19T02:25:03.777Z,99.90
2019-01-19T02:27:55.915Z,99.90
2019-01-19T02:30:47.309Z,99.90
2019-01-19T02:33:41.335Z,99.90
2019-01-19T02:36:22.151Z,99.90
2019-01-19T02:39:29.756Z,99.90
2019-01-19T02:42:10.254Z,99.90
2019-01-19T02:44:47.579Z,99.90
2019-01-19T02:47:59.387Z,99.90
2019-01-19T02:50:31.131Z,99.90
2019-01-19T02:53:08.634Z,99.90
2019-01-19T02:55:46.566Z,99.90
2019-01-19T02:58:51.770Z,99.90
2019-01-19T03:01:23.460Z,99.90
2019-01-19T03:04:18.911Z,99.90
2019-01-19T03:07:07.249Z,99.90
2019-01-19T03:09:50.819Z,99.90
2019-01-19T03:12:31.519Z,99.90
2019-01-19T03:15:31.521Z,99.90
2019-01-19T03:18:22.918Z,99.90
2019-01-19T03:21:16.609Z,99.90
2019-01-19T03:24:08.738Z,99.90
2019-01-19T03:26:49.141Z,99.90
2019-01-19T03:29:50.826Z,99.90
2019-01-19T03:32:30.901Z,99.90
2019-01-19T03:35:14.521Z,99.90
2019-01-19T03:38:04.142Z,99.90
2019-01-19T03:41:08.850Z,99.90
2019-01-19T03:43:43.428Z,99.90
2019-01-19T03:46:15.133Z,99.90
2019-01-19T03:49:12.512Z,99.90
2019-01-19T03:51:46.839Z,99.90
2019-01-19T03:54:43.484Z,99.90
2019-01-19T03:57:18.026Z,99.90
2019-01-19T03:59:58.883Z,99.90
2019-01-19T04:02:57.340Z,99.90
2019-01-19T04:05:40.751Z,99.90
2019-01-19T04:08:38.054Z,99.90
2019-01-19T04:11:15.469Z,99.90
2019-01-19T04:13:56.139Z,99.90
2019-01-19T04:16:39.552Z,99.90
2019-01-19T04:19:16.818Z,99.90
2019-01-19T04:21:54.304Z,99.90
2019-01-19T04:24:25.814Z,99.90
2019-01-19T04:26:54.446Z,99.90
2019-01-19T04:29:23.105Z,99.90
2019-01-19T04:32:11.083Z,99.90
2019-01-19T04:34:39.764Z,99.90
2019-01-19T04:37:08.335Z,99.90
2019-01-19T04:39:36.906Z,99.90
2019-01-19T04:42:06.308Z,99.90
2019-01-19T04:44:34.944Z,99.90
2019-01-19T04:47:03.614Z,99.90
2019-01-19T04:49:32.190Z,99.90
2019-01-19T04:52:00.928Z,99.90
2019-01-19T04:54:29.494Z,99.90
2019-01-19T04:56:58.154Z,99.90
2019-01-19T04:59:26.726Z,99.90
2019-01-19T05:01:55.327Z,99.90
2019-01-19T05:04:23.882Z,99.90
2019-01-19T05:06:52.482Z,99.90
2019-01-19T05:09:21.046Z,99.90
2019-01-19T05:11:49.718Z,99.90
2019-01-19T05:14:18.348Z,99.90
2019-01-19T05:16:46.947Z,99.90
2019-01-19T05:19:15.521Z,99.90
2019-01-19T05:21:44.113Z,99.90
2019-01-19T05:24:12.682Z,99.90
2019-01-19T05:26:41.348Z,99.90
2019-01-19T05:29:09.970Z,99.90
2019-01-19T05:31:38.582Z,99.90
2019-01-19T05:34:07.146Z,99.90
2019-01-19T05:36:38.424Z,99.90
2019-01-19T05:39:07.389Z,99.90
2019-01-19T05:41:35.986Z,99.90
2019-01-19T05:44:04.700Z,99.90
2019-01-19T05:46:33.421Z,99.90
2019-01-19T05:49:01.993Z,99.90
2019-01-19T05:51:30.587Z,99.90
2019-01-19T05:53:59.156Z,99.90
2019-01-19T05:56:27.750Z,99.90
2019-01-19T05:58:56.307Z,99.90
2019-01-19T06:01:25.450Z,99.90
2019-01-19T06:03:54.025Z,99.90
2019-01-19T06:06:22.942Z,99.90
2019-01-19T06:08:51.661Z,99.90
2019-01-19T06:11:20.365Z,99.90
2019-01-19T06:13:48.956Z,99.90
2019-01-19T06:16:17.531Z,99.90
2019-01-19T06:18:46.665Z,99.90
2019-01-19T06:21:16.417Z,99.90
2019-01-19T06:23:45.013Z,99.90
2019-01-19T06:26:13.577Z,99.90
2019-01-19T06:28:42.237Z,99.90
2019-01-19T06:31:10.883Z,99.90
2019-01-19T06:33:39.549Z,99.90
2019-01-19T06:36:08.177Z,99.90
2019-01-19T06:38:36.765Z,99.90
2019-01-19T06:41:05.400Z,99.90
2019-01-19T06:43:33.994Z,99.90
2019-01-19T06:46:02.713Z,99.90
2019-01-19T06:48:31.300Z,99.90
2019-01-19T06:50:59.941Z,99.90
2019-01-19T06:53:28.529Z,99.90
2019-01-19T06:55:57.233Z,99.90
2019-01-19T06:58:25.850Z,99.90
2019-01-19T07:00:54.408Z,99.90
2019-01-19T07:03:23.003Z,99.90
2019-01-19T07:05:51.723Z,99.90
2019-01-19T07:08:20.441Z,99.90
2019-01-19T07:10:49.022Z,99.90
2019-01-19T07:13:17.693Z,99.90
2019-01-19T07:15:46.256Z,99.90
2019-01-19T07:18:14.959Z,99.90
2019-01-19T07:20:43.600Z,99.90
2019-01-19T07:23:12.247Z,99.90
2019-01-19T07:25:40.834Z,99.90
2019-01-19T07:28:09.392Z,99.90
2019-01-19T07:30:38.059Z,99.90
2019-01-19T07:33:06.637Z,99.90
2019-01-19T07:35:35.241Z,99.90
2019-01-19T07:38:03.886Z,99.90
2019-01-19T07:40:32.488Z,99.90
2019-01-19T07:43:01.933Z,99.90
2019-01-19T07:45:30.601Z,97.90
2019-01-19T07:47:59.341Z,96.90
2019-01-19T07:50:27.930Z,95.70
2019-01-19T07:52:56.565Z,93.30
2019-01-19T07:55:25.156Z,91.70
2019-01-19T07:57:53.973Z,91.00
2019-01-19T08:00:28.408Z,86.20
2019-01-19T08:02:57.097Z,83.50
2019-01-19T08:05:25.833Z,81.10
2019-01-19T08:07:54.531Z,77.70
2019-01-19T08:10:23.262Z,74.30
2019-01-19T08:12:53.867Z,73.00
2019-01-19T08:15:24.796Z,72.20
2019-01-19T08:17:53.491Z,69.30
2019-01-19T08:20:22.186Z,69.20
2019-01-19T08:22:54.410Z,68.20
2019-01-19T08:25:23.121Z,67.20
2019-01-19T08:27:51.884Z,63.30
2019-01-19T08:30:29.003Z,60.70
2019-01-19T08:32:57.636Z,62.00
2019-01-19T08:35:26.343Z,63.70
2019-01-19T08:38:14.342Z,62.20
2019-01-19T08:40:42.970Z,61.70
2019-01-19T08:43:13.363Z,59.60
2019-01-19T08:45:42.478Z,59.30
2019-01-19T08:48:11.496Z,60.60
2019-01-19T08:50:40.137Z,59.30
2019-01-19T08:53:08.728Z,58.80
2019-01-19T08:55:37.277Z,56.70
2019-01-19T08:58:06.125Z,55.20
2019-01-19T09:00:34.748Z,56.90
2019-01-19T09:03:03.565Z,58.20
2019-01-19T09:05:32.135Z,58.20
2019-01-19T09:08:00.705Z,57.50
2019-01-19T09:10:29.451Z,55.80
2019-01-19T09:12:58.109Z,55.90
2019-01-19T09:15:26.925Z,54.60
2019-01-19T09:17:55.515Z,53.00
2019-01-19T09:20:24.153Z,52.10
2019-01-19T09:22:57.442Z,51.40
2019-01-19T09:25:26.078Z,51.70
2019-01-19T09:27:54.771Z,51.70
2019-01-19T09:30:24.564Z,52.70
2019-01-19T09:32:53.377Z,50.20
2019-01-19T09:35:22.073Z,50.30
2019-01-19T09:37:50.715Z,51.40
2019-01-19T09:40:19.609Z,51.00
2019-01-19T09:42:48.438Z,50.90
2019-01-19T09:45:19.288Z,50.30
2019-01-19T09:47:48.018Z,49.00
2019-01-19T09:50:17.810Z,49.40
2019-01-19T09:52:46.524Z,49.50
2019-01-19T09:55:15.301Z,49.30
2019-01-19T09:57:43.988Z,48.60
2019-01-19T10:00:21.757Z,47.50
2019-01-19T10:02:50.548Z,46.50
2019-01-19T10:05:22.133Z,46.10
2019-01-19T10:07:50.822Z,44.90
2019-01-19T10:10:19.715Z,45.40
2019-01-19T10:12:48.401Z,44.40
2019-01-19T10:15:18.425Z,42.50
2019-01-19T10:17:47.109Z,42.80
2019-01-19T10:20:21.598Z,42.70
2019-01-19T10:22:50.369Z,45.10
2019-01-19T10:25:19.050Z,43.10
2019-01-19T10:27:47.746Z,42.20
2019-01-19T10:30:30.037Z,43.40
2019-01-19T10:32:58.667Z,43.60
2019-01-19T10:35:27.309Z,43.40
2019-01-19T10:37:56.796Z,43.10
2019-01-19T10:40:25.619Z,43.60
2019-01-19T10:42:54.308Z,43.50
2019-01-19T10:45:25.012Z,42.20
2019-01-19T10:47:53.703Z,42.00
2019-01-19T10:50:22.434Z,43.10
2019-01-19T10:52:51.265Z,41.20
2019-01-19T10:55:22.062Z,42.90
2019-01-19T10:57:50.867Z,42.80
2019-01-19T11:00:33.622Z,44.10
2019-01-19T11:03:02.178Z,44.60
2019-01-19T11:05:31.377Z,44.70
2019-01-19T11:08:03.867Z,45.50
2019-01-19T11:10:32.124Z,46.30
2019-01-19T11:13:01.201Z,46.40
2019-01-19T11:15:29.912Z,46.20
2019-01-19T11:17:58.758Z,47.50
2019-01-19T11:20:29.230Z,45.30
2019-01-19T11:22:58.585Z,43.70
2019-01-19T11:25:27.233Z,44.70
2019-01-19T11:27:55.925Z,46.00
2019-01-19T11:30:26.456Z,45.50
2019-01-19T11:32:55.145Z,45.90
2019-01-19T11:35:24.074Z,45.90
2019-01-19T11:37:52.763Z,44.90
2019-01-19T11:40:37.860Z,45.00
2019-01-19T11:43:07.952Z,43.70
2019-01-19T11:45:36.677Z,44.70
2019-01-19T11:48:05.465Z,45.00
2019-01-19T11:50:34.103Z,45.00
2019-01-19T11:53:02.734Z,44.00
2019-01-19T11:55:31.381Z,44.30
2019-01-19T11:58:01.876Z,43.70
2019-01-19T12:00:36.400Z,43.70
2019-01-19T12:03:05.630Z,43.20
2019-01-19T12:05:34.461Z,42.40
2019-01-19T12:08:03.264Z,42.90
2019-01-19T12:10:32.277Z,46.60
2019-01-19T12:13:00.975Z,45.50
2019-01-19T12:15:30.184Z,47.00
2019-01-19T12:17:58.881Z,45.80
2019-01-19T12:20:35.741Z,44.60
2019-01-19T12:23:04.434Z,44.70
2019-01-19T12:25:52.426Z,44.70
2019-01-19T12:28:23.784Z,44.30
2019-01-19T12:30:52.442Z,44.10
2019-01-19T12:33:21.432Z,45.60
2019-01-19T12:35:50.170Z,46.20
2019-01-19T12:38:18.861Z,47.70
2019-01-19T12:40:47.414Z,47.80
2019-01-19T12:43:17.324Z,47.90
2019-01-19T12:45:51.189Z,46.10
2019-01-19T12:48:19.764Z,46.40
2019-01-19T12:50:48.381Z,46.10
2019-01-19T12:53:16.969Z,46.80
2019-01-19T12:55:45.674Z,45.70
2019-01-19T12:58:14.324Z,46.80
2019-01-19T13:00:42.947Z,45.40
2019-01-19T13:03:11.670Z,45.30
2019-01-19T13:05:55.700Z,45.60
2019-01-19T13:08:26.791Z,45.80
2019-01-19T13:11:00.070Z,47.10
2019-01-19T13:13:29.090Z,45.70
2019-01-19T13:16:26.661Z,46.90
2019-01-19T13:19:01.134Z,47.50
2019-01-19T13:21:49.438Z,47.10
2019-01-19T13:24:21.101Z,49.20
2019-01-19T13:27:15.406Z,50.10
2019-01-19T13:30:01.962Z,49.90
2019-01-19T13:32:45.102Z,49.20
2019-01-19T13:35:37.872Z,47.90
2019-01-19T13:38:24.281Z,47.70
2019-01-19T13:40:58.584Z,48.70
2019-01-19T13:43:35.703Z,48.20
2019-01-19T13:46:10.310Z,48.20
2019-01-19T13:48:44.663Z,48.70
2019-01-19T13:51:22.178Z,48.90
2019-01-19T13:54:13.200Z,48.50
2019-01-19T13:56:50.618Z,49.50
2019-01-19T13:59:40.405Z,49.80
2019-01-19T14:02:38.574Z,50.70
2019-01-19T14:05:19.042Z,51.90
2019-01-19T14:08:08.572Z,50.20
2019-01-19T14:10:48.526Z,49.80
2019-01-19T14:13:36.991Z,50.40
2019-01-19T14:16:14.549Z,49.80
2019-01-19T14:18:46.200Z,49.80
2019-01-19T14:21:23.357Z,49.40
2019-01-19T14:24:10.142Z,49.00
2019-01-19T14:26:47.553Z,49.90
2019-01-19T14:29:34.043Z,48.90
2019-01-19T14:32:20.572Z,49.20
2019-01-19T14:35:01.182Z,49.60
2019-01-19T14:37:59.740Z,49.90
2019-01-19T14:41:08.526Z,50.30
2019-01-19T14:43:56.968Z,51.00
2019-01-19T14:46:40.489Z,50.80
2019-01-19T14:49:23.498Z,51.30
2019-01-19T14:52:01.147Z,51.30
2019-01-19T14:54:32.771Z,51.30
2019-01-19T14:57:16.271Z,51.50
2019-01-19T14:59:49.387Z,50.90
2019-01-19T15:02:51.903Z,51.50
2019-01-19T15:05:29.273Z,51.90
2019-01-19T15:08:03.590Z,52.30
2019-01-19T15:10:35.301Z,52.90
2019-01-19T15:13:15.947Z,53.40
2019-01-19T15:15:59.564Z,54.20
2019-01-19T15:18:58.897Z,54.50
2019-01-19T15:21:33.074Z,54.90
2019-01-19T15:24:04.720Z,56.00
2019-01-19T15:26:51.582Z,56.00
2019-01-19T15:29:38.841Z,56.30
2019-01-19T15:32:28.912Z,57.30
2019-01-19T15:35:09.287Z,57.50
2019-01-19T15:37:49.757Z,58.00
2019-01-19T15:40:51.194Z,58.00
2019-01-19T15:43:56.361Z,58.10
2019-01-19T15:46:47.502Z,58.80
2019-01-19T15:49:45.712Z,59.10
2019-01-19T15:52:26.180Z,59.90
2019-01-19T15:55:00.452Z,60.40
2019-01-19T15:57:41.885Z,61.30
2019-01-19T16:00:25.460Z,62.30
2019-01-19T16:02:57.287Z,63.60
2019-01-19T16:05:40.805Z,63.90
2019-01-19T16:08:24.595Z,64.30
2019-01-19T16:11:05.337Z,65.30
2019-01-19T16:13:45.676Z,66.30
2019-01-19T16:16:20.593Z,67.30
2019-01-19T16:19:09.078Z,67.30
2019-01-19T16:21:55.950Z,67.50
2019-01-19T16:24:54.130Z,68.30
2019-01-19T16:27:37.890Z,68.80
2019-01-19T16:30:18.395Z,69.60
2019-01-19T16:33:07.846Z,69.60
2019-01-19T16:35:45.342Z,75.10
2019-01-19T16:38:39.926Z,70.10
2019-01-19T16:41:17.335Z,71.20
2019-01-19T16:43:55.075Z,71.60
2019-01-19T16:46:49.441Z,72.90
2019-01-19T16:49:30.377Z,72.20
2019-01-19T16:52:22.622Z,73.10
2019-01-19T16:55:00.090Z,73.70
2019-01-19T16:57:35.034Z,73.70
2019-01-19T17:00:24.478Z,74.10
2019-01-19T17:03:18.805Z,74.40
2019-01-19T17:06:09.917Z,75.20
2019-01-19T17:08:44.119Z,76.10
2019-01-19T17:11:43.774Z,77.40
2019-01-19T17:14:21.441Z,77.80
2019-01-19T17:16:55.809Z,78.10
2019-01-19T17:20:01.927Z,79.90
2019-01-19T17:22:39.276Z,79.10
2019-01-19T17:25:47.552Z,81.00
2019-01-19T17:28:21.751Z,81.30
2019-01-19T17:31:14.036Z,81.50
2019-01-19T17:33:48.271Z,81.60
2019-01-19T17:36:28.617Z,82.00
2019-01-19T17:39:10.940Z,83.20
2019-01-19T17:42:03.214Z,84.00
2019-01-19T17:44:37.509Z,85.10
2019-01-19T17:47:36.501Z,85.80
2019-01-19T17:50:32.565Z,86.20
2019-01-19T17:53:09.883Z,94.90
2019-01-19T17:55:59.324Z,90.10
2019-01-19T17:58:33.526Z,88.70
2019-01-19T18:01:08.099Z,88.20
2019-01-19T18:04:13.167Z,88.00
2019-01-19T18:06:53.454Z,88.70
2019-01-19T18:09:34.155Z,91.30
2019-01-19T18:12:08.482Z,93.80
2019-01-19T18:15:08.826Z,90.50
2019-01-19T18:18:00.076Z,90.90
2019-01-19T18:20:52.485Z,91.10
2019-01-19T18:23:35.845Z,91.70
2019-01-19T18:26:24.911Z,92.40
2019-01-19T18:29:08.956Z,92.30
2019-01-19T18:31:55.825Z,91.50
2019-01-19T18:34:45.645Z,91.40
2019-01-19T18:37:39.051Z,91.30
2019-01-19T18:43:40.411Z,92.10
2019-01-19T18:46:18.016Z,92.50
2019-01-19T18:48:54.962Z,93.30
2019-01-19T18:51:49.263Z,94.10
2019-01-19T18:54:23.763Z,94.20
2019-01-19T18:57:28.777Z,96.00
2019-01-19T19:00:00.463Z,96.20
2019-01-19T19:02:34.749Z,96.40
2019-01-19T19:05:39.164Z,96.70
2019-01-19T19:08:13.325Z,97.30
2019-01-19T19:11:13.749Z,97.30
2019-01-19T19:13:54.516Z,97.30
2019-01-19T19:16:56.292Z,97.40
2019-01-19T19:20:05.058Z,97.40
2019-01-19T19:22:39.581Z,97.10
2019-01-19T19:25:27.726Z,97.20
2019-01-19T19:27:59.438Z,96.60
2019-01-19T19:30:34.343Z,97.30
2019-01-19T19:33:14.268Z,96.60
2019-01-19T19:36:20.190Z,96.70
2019-01-19T19:39:17.720Z,96.60
2019-01-19T19:42:35.900Z,97.30
2019-01-19T19:45:36.350Z,96.90
2019-01-19T19:48:10.669Z,97.90
2019-01-19T19:50:53.876Z,97.60
2019-01-19T19:53:22.513Z,96.90
2019-01-19T19:55:50.029Z,97.90
2019-01-19T19:58:18.600Z,98.20
2019-01-19T20:00:47.294Z,98.20
2019-01-19T20:03:15.848Z,98.30
2019-01-19T20:05:44.526Z,97.60
2019-01-19T20:08:13.228Z,98.60
2019-01-19T20:10:41.823Z,98.80
2019-01-19T20:13:10.537Z,98.20
2019-01-19T20:15:39.137Z,98.80
2019-01-19T20:18:07.776Z,98.60
2019-01-19T20:20:36.442Z,98.60
2019-01-19T20:23:05.077Z,98.70
2019-01-19T20:25:33.682Z,98.70
2019-01-19T20:28:02.394Z,98.60
2019-01-19T20:30:31.067Z,98.50
2019-01-19T20:32:59.630Z,98.80
2019-01-19T20:35:28.232Z,98.50
2019-01-19T20:37:56.801Z,98.50
2019-01-19T20:40:25.454Z,98.50
2019-01-19T20:42:54.138Z,98.80
2019-01-19T20:45:22.781Z,98.90
2019-01-19T20:47:51.379Z,99.00
2019-01-19T20:50:19.954Z,98.80
2019-01-19T20:52:48.612Z,99.10
2019-01-19T20:55:17.186Z,99.20
2019-01-19T20:57:45.848Z,99.30
2019-01-19T21:00:20.653Z,99.30
2019-01-19T21:02:49.322Z,99.30
2019-01-19T21:05:17.955Z,99.20
2019-01-19T21:07:46.558Z,99.40
2019-01-19T21:10:15.207Z,99.40
2019-01-19T21:12:43.805Z,99.30
2019-01-19T21:15:15.406Z,99.50
2019-01-19T21:17:44.165Z,99.90
2019-01-19T21:20:15.462Z,99.90
2019-01-19T21:22:44.109Z,99.00
2019-01-19T21:25:13.617Z,99.50
2019-01-19T21:27:42.279Z,98.90
2019-01-19T21:30:16.195Z,99.90
2019-01-19T21:32:44.972Z,99.90
2019-01-19T21:35:13.955Z,99.90
2019-01-19T21:37:42.593Z,99.90
2019-01-19T21:40:13.218Z,99.90
2019-01-19T21:42:41.898Z,99.90
2019-01-19T21:45:13.631Z,99.90
2019-01-19T21:47:42.264Z,99.90
2019-01-19T21:50:12.374Z,99.90
2019-01-19T21:52:41.111Z,99.90
2019-01-19T21:55:10.357Z,99.90
2019-01-19T21:57:39.065Z,99.90
2019-01-19T22:00:10.955Z,99.90
2019-01-19T22:02:39.602Z,99.90
2019-01-19T22:05:08.625Z,99.90
2019-01-19T22:07:37.333Z,99.90
2019-01-19T22:10:14.795Z,99.90
2019-01-19T22:12:43.493Z,99.90
2019-01-19T22:15:17.553Z,99.90
2019-01-19T22:17:46.167Z,99.90
2019-01-19T22:20:16.957Z,99.90
2019-01-19T22:22:45.611Z,99.90
2019-01-19T22:25:14.533Z,99.90
2019-01-19T22:27:44.809Z,99.90
2019-01-19T22:30:19.014Z,99.90
2019-01-19T22:32:48.985Z,99.90
2019-01-19T22:35:17.644Z,99.90
2019-01-19T22:37:46.280Z,99.90
2019-01-19T22:40:18.032Z,99.90
2019-01-19T22:42:52.306Z,99.90
2019-01-19T22:45:21.121Z,99.90
2019-01-19T22:47:49.644Z,99.90
2019-01-19T22:50:19.168Z,99.90
2019-01-19T22:52:47.798Z,99.90
2019-01-19T22:55:16.528Z,99.90
2019-01-19T22:57:45.247Z,99.90
2019-01-19T23:00:53.417Z,99.90
2019-01-19T23:03:21.972Z,99.90
2019-01-19T23:05:50.603Z,99.90
2019-01-19T23:08:19.211Z,99.90
2019-01-19T23:10:47.880Z,99.90
2019-01-19T23:13:16.510Z,99.90
2019-01-19T23:15:45.167Z,99.90
2019-01-19T23:18:13.728Z,99.90
2019-01-19T23:20:42.393Z,99.90
2019-01-19T23:23:10.966Z,99.90
2019-01-19T23:25:39.629Z,99.90
2019-01-19T23:28:08.201Z,99.90
2019-01-19T23:30:36.950Z,99.90
2019-01-19T23:33:05.666Z,99.90
2019-01-19T23:35:41.577Z,99.90
2019-01-19T23:38:10.218Z,99.90
2019-01-19T23:40:38.886Z,99.90
2019-01-19T23:43:07.693Z,99.90
2019-01-19T23:45:36.281Z,99.90
2019-01-19T23:48:05.514Z,99.90
2019-01-19T23:50:34.121Z,99.90
2019-01-19T23:53:02.696Z,99.90
2019-01-19T23:55:31.337Z,99.90
2019-01-19T23:57:59.997Z,99.90
